createdAt,value
2023-02-13T00:02:00.847Z,78.84
2023-02-13T00:04:28.554Z,78.81
2023-02-13T00:06:56.220Z,78.78
2023-02-13T00:09:23.900Z,78.92
2023-02-13T00:11:51.696Z,78.89
2023-02-13T00:14:19.427Z,78.96
2023-02-13T00:16:48.460Z,78.80
2023-02-13T00:19:16.148Z,79.23
2023-02-13T00:21:43.803Z,79.28
2023-02-13T00:24:11.490Z,79.44
2023-02-13T00:26:39.948Z,79.55
2023-02-13T00:29:07.615Z,80.02
2023-02-13T00:31:36.120Z,80.33
2023-02-13T00:34:05.264Z,80.81
2023-02-13T00:36:33.043Z,81.17
2023-02-13T00:39:00.720Z,81.56
2023-02-13T00:41:28.441Z,81.84
2023-02-13T00:43:56.156Z,82.19
2023-02-13T00:46:23.905Z,82.52
2023-02-13T00:48:51.676Z,82.81
2023-02-13T00:51:20.700Z,82.93
2023-02-13T00:53:48.466Z,83.01
2023-02-13T00:56:16.165Z,83.13
2023-02-13T00:58:43.903Z,83.46
2023-02-13T01:01:11.799Z,83.20
2023-02-13T01:03:39.630Z,83.28
2023-02-13T01:06:08.125Z,83.60
2023-02-13T01:08:40.108Z,84.12
2023-02-13T01:11:07.910Z,84.29
2023-02-13T01:13:35.806Z,84.61
2023-02-13T01:16:03.587Z,85.07
2023-02-13T01:18:31.412Z,85.14
2023-02-13T01:21:01.573Z,85.11
2023-02-13T01:23:31.639Z,85.69
2023-02-13T01:26:01.189Z,85.80
2023-02-13T01:28:29.121Z,86.24
2023-02-13T01:30:58.947Z,86.55
2023-02-13T01:33:28.200Z,86.29
2023-02-13T01:35:55.946Z,86.65
2023-02-13T01:38:23.691Z,86.47
2023-02-13T01:40:55.925Z,86.58
2023-02-13T01:43:25.705Z,86.84
2023-02-13T01:45:55.774Z,86.69
2023-02-13T01:48:25.281Z,87.13
2023-02-13T01:50:56.047Z,87.12
2023-02-13T01:53:26.749Z,87.14
2023-02-13T01:55:57.367Z,87.45
2023-02-13T01:58:28.311Z,87.43
2023-02-13T02:00:56.354Z,87.68
2023-02-13T02:03:29.325Z,88.08
2023-02-13T02:05:58.349Z,88.27
2023-02-13T02:08:26.234Z,88.42
2023-02-13T02:10:56.148Z,88.72
2023-02-13T02:13:24.049Z,88.83
2023-02-13T02:15:53.316Z,89.09
2023-02-13T02:18:23.170Z,89.07
2023-02-13T02:21:17.086Z,89.15
2023-02-13T02:24:18.021Z,89.29
2023-02-13T02:27:09.694Z,89.32
2023-02-13T02:30:17.237Z,89.30
2023-02-13T02:32:58.163Z,89.41
2023-02-13T02:35:33.263Z,89.25
2023-02-13T02:38:09.506Z,89.13
2023-02-13T02:40:45.127Z,89.17
2023-02-13T02:43:27.073Z,89.08
2023-02-13T02:45:58.354Z,89.25
2023-02-13T02:48:50.991Z,89.11
2023-02-13T02:51:22.941Z,88.87
2023-02-13T02:54:01.446Z,88.46
2023-02-13T02:56:33.816Z,88.38
2023-02-13T02:59:19.151Z,88.56
2023-02-13T03:02:04.905Z,88.24
2023-02-13T03:04:54.937Z,88.17
2023-02-13T03:07:22.720Z,88.06
2023-02-13T03:10:11.188Z,88.37
2023-02-13T03:13:14.469Z,88.28
2023-02-13T03:15:57.930Z,88.29
2023-02-13T03:18:48.960Z,87.81
2023-02-13T03:21:40.797Z,87.99
2023-02-13T03:24:11.469Z,88.16
2023-02-13T03:26:50.219Z,87.83
2023-02-13T03:29:46.861Z,88.01
2023-02-13T03:32:22.402Z,87.95
2023-02-13T03:35:16.105Z,87.54
2023-02-13T03:37:57.780Z,87.22
2023-02-13T03:40:30.431Z,86.93
2023-02-13T03:43:04.865Z,87.28
2023-02-13T03:45:56.731Z,87.25
2023-02-13T03:48:44.286Z,87.39
2023-02-13T03:51:14.936Z,87.46
2023-02-13T03:53:44.913Z,87.50
2023-02-13T03:56:31.820Z,87.51
2023-02-13T03:59:16.216Z,87.51
2023-02-13T04:02:02.856Z,87.53
2023-02-13T04:04:36.320Z,87.63
2023-02-13T04:07:06.722Z,87.55
2023-02-13T04:09:38.755Z,87.78
2023-02-13T04:12:11.794Z,87.84
2023-02-13T04:14:42.010Z,87.87
2023-02-13T04:17:13.597Z,87.80
2023-02-13T04:19:41.425Z,88.11
2023-02-13T04:22:09.167Z,88.10
2023-02-13T04:24:38.328Z,88.04
2023-02-13T04:27:06.094Z,88.00
2023-02-13T04:29:33.744Z,87.98
2023-02-13T04:32:01.462Z,87.94
2023-02-13T04:34:29.156Z,87.81
2023-02-13T04:36:57.110Z,87.75
2023-02-13T04:39:24.815Z,87.73
2023-02-13T04:41:53.892Z,87.96
2023-02-13T04:44:21.602Z,87.80
2023-02-13T04:46:49.334Z,87.99
2023-02-13T04:49:17.033Z,87.90
2023-02-13T04:51:44.691Z,88.04
2023-02-13T04:54:12.626Z,88.37
2023-02-13T04:56:40.383Z,88.15
2023-02-13T04:59:09.431Z,88.01
2023-02-13T05:01:37.111Z,87.94
2023-02-13T05:04:05.080Z,88.02
2023-02-13T05:06:32.949Z,87.98
2023-02-13T05:09:00.609Z,88.09
2023-02-13T05:11:28.527Z,88.09
2023-02-13T05:13:56.640Z,87.99
2023-02-13T05:16:25.696Z,88.15
2023-02-13T05:18:55.017Z,87.91
2023-02-13T05:21:40.250Z,87.85
2023-02-13T05:24:08.146Z,87.58
2023-02-13T05:26:35.822Z,87.46
2023-02-13T05:29:22.730Z,87.29
2023-02-13T05:31:53.807Z,87.28
2023-02-13T05:34:22.053Z,87.30
2023-02-13T05:36:50.110Z,87.14
2023-02-13T05:39:18.326Z,87.40
2023-02-13T05:41:47.008Z,87.10
2023-02-13T05:44:15.537Z,87.26
2023-02-13T05:46:44.737Z,87.30
2023-02-13T05:49:15.406Z,87.38
2023-02-13T05:51:43.184Z,87.21
2023-02-13T05:54:10.876Z,87.33
2023-02-13T05:56:38.646Z,87.14
2023-02-13T05:59:06.345Z,87.27
2023-02-13T06:01:34.108Z,86.99
2023-02-13T06:04:03.849Z,87.31
2023-02-13T06:06:33.322Z,87.09
2023-02-13T06:09:01.096Z,87.04
2023-02-13T06:11:28.750Z,86.86
2023-02-13T06:13:56.452Z,86.95
2023-02-13T06:16:24.391Z,86.65
2023-02-13T06:18:52.210Z,86.83
2023-02-13T06:21:19.917Z,86.57
2023-02-13T06:23:49.005Z,86.38
2023-02-13T06:26:17.049Z,86.35
2023-02-13T06:28:44.788Z,86.17
2023-02-13T06:31:12.606Z,86.29
2023-02-13T06:33:40.470Z,86.03
2023-02-13T06:36:08.811Z,85.99
2023-02-13T06:38:36.465Z,85.82
2023-02-13T06:41:06.970Z,85.71
2023-02-13T06:43:34.628Z,85.70
2023-02-13T06:46:05.983Z,85.41
2023-02-13T06:48:34.011Z,85.00
2023-02-13T06:51:02.600Z,84.74
2023-02-13T06:53:30.623Z,84.78
2023-02-13T06:55:58.649Z,84.84
2023-02-13T06:58:27.680Z,84.68
2023-02-13T07:00:55.618Z,84.54
2023-02-13T07:03:23.495Z,84.24
2023-02-13T07:05:52.087Z,84.24
2023-02-13T07:08:20.130Z,84.06
2023-02-13T07:10:47.852Z,84.10
2023-02-13T07:13:17.515Z,83.78
2023-02-13T07:15:46.631Z,83.71
2023-02-13T07:18:14.448Z,83.34
2023-02-13T07:20:42.237Z,83.25
2023-02-13T07:23:10.003Z,83.05
2023-02-13T07:25:37.673Z,83.07
2023-02-13T07:28:06.709Z,82.69
2023-02-13T07:30:35.687Z,82.42
2023-02-13T07:33:05.885Z,82.23
2023-02-13T07:35:36.131Z,81.71
2023-02-13T07:38:04.401Z,81.49
2023-02-13T07:40:32.593Z,81.33
2023-02-13T07:43:02.012Z,81.03
2023-02-13T07:45:29.811Z,80.80
2023-02-13T07:47:57.567Z,80.74
2023-02-13T07:50:27.204Z,80.64
2023-02-13T07:52:55.539Z,80.18
2023-02-13T07:55:23.569Z,80.07
2023-02-13T07:57:52.015Z,79.64
2023-02-13T08:00:21.772Z,79.40
2023-02-13T08:02:50.089Z,78.91
2023-02-13T08:05:17.944Z,78.91
2023-02-13T08:07:47.042Z,78.90
2023-02-13T08:10:32.923Z,78.72
2023-02-13T08:13:00.880Z,78.71
2023-02-13T08:15:28.575Z,78.89
2023-02-13T08:17:56.271Z,78.76
2023-02-13T08:20:24.580Z,79.23
2023-02-13T08:22:53.654Z,79.27
2023-02-13T08:25:21.443Z,79.29
2023-02-13T08:27:49.222Z,78.91
2023-02-13T08:30:17.105Z,78.98
2023-02-13T08:32:53.838Z,78.66
2023-02-13T08:35:26.537Z,78.67
2023-02-13T08:37:55.629Z,78.61
2023-02-13T08:40:24.659Z,79.14
2023-02-13T08:42:54.995Z,78.68
2023-02-13T08:45:23.488Z,78.58
2023-02-13T08:47:51.184Z,78.61
2023-02-13T08:50:19.204Z,78.45
2023-02-13T08:52:47.031Z,78.58
2023-02-13T08:55:16.423Z,78.33
2023-02-13T08:57:44.132Z,78.44
2023-02-13T09:00:15.046Z,78.01
2023-02-13T09:02:42.835Z,78.19
2023-02-13T09:05:10.613Z,78.03
2023-02-13T09:07:38.319Z,78.63
2023-02-13T09:10:07.264Z,78.51
2023-02-13T09:12:36.402Z,78.34
2023-02-13T09:15:04.787Z,78.78
2023-02-13T09:17:32.515Z,78.54
2023-02-13T09:20:00.207Z,78.66
2023-02-13T09:22:28.125Z,79.39
2023-02-13T09:24:55.841Z,79.05
2023-02-13T09:27:23.507Z,78.97
2023-02-13T09:29:53.000Z,78.79
2023-02-13T09:32:20.741Z,78.42
2023-02-13T09:34:48.449Z,78.81
2023-02-13T09:37:16.221Z,78.57
2023-02-13T09:39:44.040Z,78.98
2023-02-13T09:42:18.548Z,78.98
2023-02-13T09:44:47.526Z,78.27
2023-02-13T09:47:22.836Z,78.76
2023-02-13T09:49:53.022Z,78.91
2023-02-13T09:52:20.844Z,78.86
2023-02-13T09:54:48.640Z,78.84
2023-02-13T09:57:20.658Z,79.07
2023-02-13T09:59:57.215Z,79.22
2023-02-13T10:02:38.419Z,79.82
2023-02-13T10:05:16.775Z,80.81
2023-02-13T10:07:50.232Z,80.60
2023-02-13T10:10:25.401Z,81.31
2023-02-13T10:13:02.879Z,81.60
2023-02-13T10:15:38.586Z,82.21
2023-02-13T10:18:14.406Z,82.28
2023-02-13T10:20:47.484Z,82.66
2023-02-13T10:23:25.155Z,82.27
2023-02-13T10:25:57.727Z,82.85
2023-02-13T10:28:32.457Z,83.55
2023-02-13T10:31:12.096Z,83.87
2023-02-13T10:33:54.786Z,84.06
2023-02-13T10:36:26.542Z,84.50
2023-02-13T10:38:58.886Z,85.43
2023-02-13T10:41:27.633Z,85.64
2023-02-13T10:44:17.784Z,85.81
2023-02-13T10:46:53.072Z,86.06
2023-02-13T10:49:51.289Z,86.04
2023-02-13T10:52:27.432Z,86.29
2023-02-13T10:55:07.444Z,86.58
2023-02-13T10:57:46.564Z,86.94
2023-02-13T11:00:22.316Z,87.02
2023-02-13T11:02:50.589Z,87.02
2023-02-13T11:05:26.072Z,87.03
2023-02-13T11:08:13.266Z,86.73
2023-02-13T11:10:42.283Z,86.85
2023-02-13T11:13:37.451Z,86.41
2023-02-13T11:16:21.100Z,86.75
2023-02-13T11:18:52.360Z,86.99
2023-02-13T11:21:37.606Z,86.99
2023-02-13T11:24:05.998Z,86.89
2023-02-13T11:26:39.351Z,86.79
2023-02-13T11:29:29.805Z,86.55
2023-02-13T11:32:12.773Z,86.20
2023-02-13T11:34:41.940Z,85.74
2023-02-13T11:42:04.544Z,85.45
2023-02-13T11:44:36.202Z,85.45
2023-02-13T11:47:05.323Z,84.96
2023-02-13T11:49:35.196Z,84.96
2023-02-13T11:52:04.610Z,100.00
2023-02-13T11:54:34.280Z,100.00
2023-02-13T11:57:05.085Z,100.00
2023-02-13T11:59:41.024Z,100.00
2023-02-13T12:02:17.606Z,100.00
2023-02-13T12:04:45.754Z,100.00
2023-02-13T12:07:25.683Z,100.00
2023-02-13T12:09:59.440Z,100.00
2023-02-13T12:12:32.757Z,100.00
2023-02-13T12:15:07.140Z,100.00
2023-02-13T12:17:36.151Z,100.00
2023-02-13T12:20:04.739Z,100.00
2023-02-13T12:22:35.386Z,100.00
2023-02-13T12:25:27.535Z,100.00
2023-02-13T12:28:08.812Z,100.00
2023-02-13T12:30:57.602Z,100.00
2023-02-13T12:33:38.724Z,100.00
2023-02-13T12:36:11.907Z,100.00
2023-02-13T12:38:48.259Z,100.00
2023-02-13T12:41:19.435Z,100.00
2023-02-13T12:44:25.942Z,100.00
2023-02-13T12:47:08.701Z,100.00
2023-02-13T12:50:01.520Z,100.00
2023-02-13T12:52:36.377Z,100.00
2023-02-13T12:55:20.753Z,100.00
2023-02-13T12:57:58.743Z,100.00
2023-02-13T13:00:36.024Z,100.00
2023-02-13T13:03:18.607Z,100.00
2023-02-13T13:06:10.890Z,100.00
2023-02-13T13:08:49.710Z,100.00
2023-02-13T13:11:28.976Z,100.00
2023-02-13T13:14:03.825Z,100.00
2023-02-13T13:16:42.856Z,100.00
2023-02-13T13:19:17.181Z,100.00
2023-02-13T13:21:49.979Z,100.00
2023-02-13T13:24:26.063Z,100.00
2023-02-13T13:26:57.244Z,100.00
2023-02-13T13:29:27.005Z,100.00
2023-02-13T13:31:57.329Z,100.00
2023-02-13T13:34:27.675Z,100.00
2023-02-13T13:36:59.149Z,100.00
2023-02-13T13:39:34.746Z,100.00
2023-02-13T13:42:13.534Z,100.00
2023-02-13T13:44:52.320Z,100.00
2023-02-13T13:47:33.876Z,100.00
2023-02-13T13:50:05.739Z,100.00
2023-02-13T13:52:35.124Z,100.00
2023-02-13T13:55:04.435Z,100.00
2023-02-13T13:58:02.094Z,100.00
2023-02-13T14:00:33.812Z,100.00
2023-02-13T14:03:26.677Z,100.00
2023-02-13T14:06:07.731Z,100.00
2023-02-13T14:09:07.547Z,100.00
2023-02-13T14:11:38.378Z,100.00
2023-02-13T14:14:52.612Z,100.00
2023-02-13T14:17:50.767Z,100.00
2023-02-13T14:20:35.251Z,100.00
2023-02-13T14:23:29.564Z,100.00
2023-02-13T14:26:12.526Z,100.00
2023-02-13T14:28:41.259Z,100.00
2023-02-13T14:31:15.152Z,100.00
2023-02-13T14:33:43.058Z,100.00
2023-02-13T14:36:27.614Z,100.00
2023-02-13T14:38:58.788Z,100.00
2023-02-13T14:41:46.411Z,100.00
2023-02-13T14:44:20.427Z,100.00
2023-02-13T14:46:52.557Z,100.00
2023-02-13T14:49:22.789Z,100.00
2023-02-13T14:51:53.415Z,100.00
2023-02-13T14:54:28.526Z,100.00
2023-02-13T14:57:02.621Z,100.00
2023-02-13T14:59:32.689Z,100.00
2023-02-13T15:02:03.265Z,100.00
2023-02-13T15:04:33.041Z,100.00
2023-02-13T15:07:02.145Z,100.00
2023-02-13T15:09:34.302Z,100.00
2023-02-13T15:12:02.219Z,100.00
2023-02-13T15:14:34.547Z,100.00
2023-02-13T15:17:07.688Z,100.00
2023-02-13T15:19:40.076Z,100.00
2023-02-13T15:22:09.368Z,100.00
2023-02-13T15:24:45.867Z,100.00
2023-02-13T15:27:19.392Z,100.00
2023-02-13T15:29:58.614Z,100.00
2023-02-13T15:32:33.022Z,100.00
2023-02-13T15:35:00.855Z,100.00
2023-02-13T15:37:31.314Z,100.00
2023-02-13T15:40:25.106Z,100.00
2023-02-13T15:42:53.619Z,100.00
2023-02-13T15:45:22.858Z,100.00
2023-02-13T15:47:51.225Z,100.00
2023-02-13T15:50:21.655Z,100.00
2023-02-13T15:52:49.745Z,100.00
2023-02-13T15:55:22.306Z,100.00
2023-02-13T15:57:52.238Z,100.00
2023-02-13T16:00:24.345Z,100.00
2023-02-13T16:02:52.989Z,100.00
2023-02-13T16:05:37.519Z,100.00
2023-02-13T16:08:27.857Z,100.00
2023-02-13T16:11:19.527Z,100.00
2023-02-13T16:13:59.567Z,100.00
2023-02-13T16:16:29.389Z,100.00
2023-02-13T16:18:57.286Z,100.00
2023-02-13T16:21:27.078Z,100.00
2023-02-13T16:24:00.374Z,100.00
2023-02-13T16:26:28.467Z,100.00
2023-02-13T16:28:57.637Z,100.00
2023-02-13T16:31:25.591Z,100.00
2023-02-13T16:33:53.326Z,100.00
2023-02-13T16:36:29.250Z,100.00
2023-02-13T16:38:57.099Z,100.00
2023-02-13T16:41:33.782Z,100.00
2023-02-13T16:44:03.095Z,100.00
2023-02-13T16:46:35.546Z,100.00
2023-02-13T16:49:14.774Z,100.00
2023-02-13T16:51:44.918Z,100.00
2023-02-13T16:54:28.943Z,100.00
2023-02-13T16:56:58.917Z,100.00
2023-02-13T16:59:37.540Z,100.00
2023-02-13T17:02:17.928Z,100.00
2023-02-13T17:04:47.206Z,100.00
2023-02-13T17:07:18.491Z,100.00
2023-02-13T17:09:46.206Z,100.00
2023-02-13T17:12:15.841Z,100.00
2023-02-13T17:14:45.385Z,100.00
2023-02-13T17:17:14.533Z,100.00
2023-02-13T17:19:42.524Z,100.00
2023-02-13T17:22:30.174Z,100.00
2023-02-13T17:24:58.360Z,100.00
2023-02-13T17:27:26.083Z,100.00
2023-02-13T17:29:55.362Z,100.00
2023-02-13T17:32:24.962Z,100.00
2023-02-13T17:34:53.376Z,100.00
2023-02-13T17:37:23.299Z,100.00
2023-02-13T17:39:53.419Z,100.00
2023-02-13T17:42:23.898Z,100.00
2023-02-13T17:44:51.989Z,100.00
2023-02-13T17:47:22.329Z,100.00
2023-02-13T17:49:55.151Z,100.00
2023-02-13T17:52:28.178Z,100.00
2023-02-13T17:54:55.984Z,100.00
2023-02-13T17:57:23.703Z,100.00
2023-02-13T17:59:52.424Z,100.00
2023-02-13T18:02:22.901Z,100.00
2023-02-13T18:04:51.154Z,100.00
2023-02-13T18:07:21.807Z,100.00
2023-02-13T18:09:50.421Z,100.00
2023-02-13T18:12:20.185Z,100.00
2023-02-13T18:14:49.304Z,100.00
2023-02-13T18:17:17.213Z,100.00
2023-02-13T18:19:47.040Z,100.00
2023-02-13T18:22:16.127Z,100.00
2023-02-13T18:24:44.485Z,100.00
2023-02-13T18:27:12.447Z,100.00
2023-02-13T18:29:40.678Z,100.00
2023-02-13T18:32:10.313Z,100.00
2023-02-13T18:34:40.175Z,100.00
2023-02-13T18:37:10.073Z,100.00
2023-02-13T18:39:37.809Z,100.00
2023-02-13T18:42:06.600Z,100.00
2023-02-13T18:44:34.405Z,100.00
2023-02-13T18:47:02.224Z,100.00
2023-02-13T18:49:30.159Z,100.00
2023-02-13T18:51:58.212Z,100.00
2023-02-13T18:54:27.401Z,100.00
2023-02-13T18:56:56.315Z,100.00
2023-02-13T18:59:24.166Z,100.00
2023-02-13T19:01:51.903Z,100.00
2023-02-13T19:04:20.420Z,100.00
2023-02-13T19:06:48.393Z,100.00
2023-02-13T19:09:16.272Z,100.00
2023-02-13T19:11:46.926Z,100.00
2023-02-13T19:14:14.975Z,100.00
2023-02-13T19:16:42.931Z,100.00
2023-02-13T19:19:14.022Z,100.00
2023-02-13T19:21:42.141Z,100.00
2023-02-13T19:24:16.407Z,100.00
2023-02-13T19:26:47.377Z,100.00
2023-02-13T19:29:15.149Z,100.00
2023-02-13T19:31:46.612Z,100.00
2023-02-13T19:34:14.344Z,100.00
2023-02-13T19:36:42.024Z,100.00
2023-02-13T19:39:10.827Z,100.00
2023-02-13T19:41:40.472Z,100.00
2023-02-13T19:44:09.840Z,100.00
2023-02-13T19:46:39.868Z,100.00
2023-02-13T19:49:07.942Z,100.00
2023-02-13T19:51:36.706Z,100.00
2023-02-13T19:54:08.730Z,100.00
2023-02-13T19:56:38.230Z,100.00
2023-02-13T19:59:06.769Z,100.00
2023-02-13T20:01:36.780Z,100.00
2023-02-13T20:04:04.500Z,100.00
2023-02-13T20:06:36.190Z,100.00
2023-02-13T20:09:06.745Z,100.00
2023-02-13T20:11:34.745Z,100.00
2023-02-13T20:14:05.633Z,100.00
2023-02-13T20:16:37.487Z,100.00
2023-02-13T20:19:08.834Z,100.00
2023-02-13T20:21:37.914Z,100.00
2023-02-13T20:24:06.108Z,100.00
2023-02-13T20:26:35.572Z,100.00
2023-02-13T20:29:05.420Z,100.00
2023-02-13T20:31:35.727Z,100.00
2023-02-13T20:34:03.604Z,100.00
2023-02-13T20:36:33.062Z,100.00
2023-02-13T20:39:02.374Z,100.00
2023-02-13T20:41:33.764Z,100.00
2023-02-13T20:44:03.140Z,100.00
2023-02-13T20:46:31.758Z,100.00
2023-02-13T20:49:01.340Z,100.00
2023-02-13T20:51:29.677Z,100.00
2023-02-13T20:53:58.282Z,100.00
2023-02-13T20:56:26.481Z,100.00
2023-02-13T20:58:56.534Z,100.00
2023-02-13T21:01:29.422Z,100.00
2023-02-13T21:03:57.733Z,100.00
2023-02-13T21:06:28.628Z,100.00
2023-02-13T21:08:56.626Z,100.00
2023-02-13T21:11:24.662Z,100.00
2023-02-13T21:13:52.460Z,100.00
2023-02-13T21:16:23.459Z,100.00
2023-02-13T21:18:52.902Z,100.00
2023-02-13T21:21:21.518Z,100.00
2023-02-13T21:23:53.722Z,100.00
2023-02-13T21:26:21.906Z,100.00
2023-02-13T21:28:50.759Z,100.00
2023-02-13T21:31:27.122Z,100.00
2023-02-13T21:33:54.862Z,100.00
2023-02-13T21:36:22.553Z,100.00
2023-02-13T21:38:51.666Z,100.00
2023-02-13T21:41:19.874Z,100.00
2023-02-13T21:43:48.930Z,100.00
2023-02-13T21:46:18.744Z,100.00
2023-02-13T21:48:46.982Z,100.00
2023-02-13T21:51:16.329Z,100.00
2023-02-13T21:53:44.421Z,100.00
2023-02-13T21:56:15.398Z,100.00
2023-02-13T21:58:44.289Z,100.00
2023-02-13T22:01:23.850Z,100.00
2023-02-13T22:03:53.252Z,100.00
2023-02-13T22:06:21.654Z,100.00
2023-02-13T22:08:49.534Z,100.00
2023-02-13T22:11:19.395Z,100.00
2023-02-13T22:13:47.060Z,100.00
2023-02-13T22:16:15.896Z,100.00
2023-02-13T22:18:44.697Z,100.00
2023-02-13T22:21:14.101Z,100.00
2023-02-13T22:23:42.526Z,100.00
2023-02-13T22:26:18.007Z,100.00
2023-02-13T22:28:45.791Z,100.00
2023-02-13T22:31:14.943Z,100.00
2023-02-13T22:33:47.486Z,100.00
2023-02-13T22:36:18.040Z,100.00
2023-02-13T22:38:45.823Z,100.00
2023-02-13T22:41:15.028Z,100.00
2023-02-13T22:43:44.222Z,100.00
2023-02-13T22:46:14.377Z,100.00
2023-02-13T22:48:44.178Z,100.00
2023-02-13T22:51:15.346Z,100.00
2023-02-13T22:53:43.444Z,100.00
2023-02-13T22:56:11.619Z,100.00
2023-02-13T22:58:39.981Z,100.00
2023-02-13T23:01:12.618Z,100.00
2023-02-13T23:03:40.529Z,100.00
2023-02-13T23:06:09.728Z,100.00
2023-02-13T23:08:38.261Z,100.00
2023-02-13T23:11:24.580Z,100.00
2023-02-13T23:13:52.296Z,100.00
2023-02-13T23:16:21.627Z,100.00
2023-02-13T23:18:51.519Z,100.00
2023-02-13T23:21:19.687Z,100.00
2023-02-13T23:23:47.545Z,100.00
2023-02-13T23:26:15.521Z,100.00
2023-02-13T23:28:43.429Z,100.00
2023-02-13T23:31:11.457Z,100.00
2023-02-13T23:33:41.028Z,100.00
2023-02-13T23:36:09.450Z,100.00
2023-02-13T23:38:37.132Z,100.00
2023-02-13T23:41:09.293Z,100.00
2023-02-13T23:43:37.321Z,100.00
2023-02-13T23:46:05.669Z,100.00
2023-02-13T23:48:33.688Z,100.00
2023-02-13T23:51:02.808Z,100.00
2023-02-13T23:53:30.591Z,100.00
2023-02-13T23:55:58.382Z,100.00
2023-02-13T23:58:26.082Z,100.00
